Terminal Aerodrome Forecast
Issued by NWS Grand Forks, ND

Home | Current Version | Previous Version | Graphics & Text | Print | Product List | Glossary On
Versions: 1 2 3 4 5 6 7 8 9 10 11 12 13 14 15 16 17 18 19 20 21 22 23
000
FTUS43 KFGF 240900 AAC
TAFGFK
TAF AMD
KGFK 240939Z 2410/2506 12012KT 5SM -RA BR OVC040
      TEMPO 2410/2411 1 1/2SM +TSRA BKN015CB
     FM241400 16010KT P6SM OVC010
     FM241800 18016KT P6SM BKN030=

USA.gov is the U.S. government's official web portal to all federal, state and local government web resources and services.